Time,TemperatureF,DewpointF,PressureIn,WindDirection,WindDirectionDegrees,WindSpeedMPH,WindSpeedGustMPH,Humidity,HourlyPrecipIn,Conditions,Clouds,dailyrainin,SoftwareType,DateUTC
2013-02-19 00:01:00,14.0,9.0,-100.00,SE,140,17.0,19.0,79,-99.99,,,0.00,,2013-02-19 07:01:00,
2013-02-19 00:11:00,13.0,8.0,-100.00,SE,145,19.0,21.0,82,-99.99,,,0.00,,2013-02-19 07:11:00,
2013-02-19 00:21:00,13.0,8.0,-100.00,SE,145,19.0,21.0,82,-99.99,,,0.00,,2013-02-19 07:21:00,
2013-02-19 00:32:00,13.0,8.0,-100.00,SE,145,19.0,21.0,82,-99.99,,,0.00,,2013-02-19 07:32:00,
2013-02-19 00:52:00,9.0,6.0,-100.00,SE,145,16.0,19.0,86,-99.99,,,0.00,,2013-02-19 07:52:00,
2013-02-19 01:01:00,9.0,6.0,-100.00,SE,145,16.0,19.0,86,-99.99,,,0.00,,2013-02-19 08:01:00,
2013-02-19 01:11:00,9.0,6.0,-100.00,SSE,150,17.0,17.0,89,-99.99,,,0.00,,2013-02-19 08:11:00,
2013-02-19 01:21:00,9.0,6.0,-100.00,SSE,150,17.0,17.0,89,-99.99,,,0.00,,2013-02-19 08:21:00,
2013-02-19 01:31:00,9.0,6.0,-100.00,SSE,150,17.0,17.0,89,-99.99,,,0.00,,2013-02-19 08:31:00,
2013-02-19 01:52:00,8.0,5.0,-100.00,SE,145,16.0,16.0,87,-99.99,,,0.00,,2013-02-19 08:52:00,
2013-02-19 02:01:00,8.0,5.0,-100.00,SE,145,16.0,16.0,87,-99.99,,,0.00,,2013-02-19 09:01:00,
2013-02-19 02:11:00,8.0,4.0,-100.00,SE,145,12.0,15.0,86,-99.99,,,0.00,,2013-02-19 09:11:00,
2013-02-19 02:21:00,8.0,4.0,-100.00,SE,145,12.0,15.0,86,-99.99,,,0.00,,2013-02-19 09:21:00,
2013-02-19 02:31:00,8.0,4.0,-100.00,SE,145,12.0,15.0,86,-99.99,,,0.00,,2013-02-19 09:31:00,
2013-02-19 02:53:00,7.0,4.0,-100.00,SE,140,13.0,15.0,86,-99.99,,,0.00,,2013-02-19 09:53:00,
2013-02-19 03:01:00,7.0,4.0,-100.00,SE,140,13.0,15.0,86,-99.99,,,0.00,,2013-02-19 10:01:00,
2013-02-19 03:11:00,7.0,4.0,-100.00,SSE,155,14.0,16.0,86,-99.99,,,0.00,,2013-02-19 10:11:00,
2013-02-19 03:21:00,7.0,4.0,-100.00,SSE,155,14.0,16.0,86,-99.99,,,0.00,,2013-02-19 10:21:00,
2013-02-19 03:31:00,7.0,4.0,-100.00,SSE,155,14.0,16.0,86,-99.99,,,0.00,,2013-02-19 10:31:00,
2013-02-19 03:52:00,7.0,4.0,-100.00,SSE,155,14.0,15.0,86,-99.99,,,0.00,,2013-02-19 10:52:00,
2013-02-19 04:01:00,7.0,4.0,-100.00,SSE,155,14.0,15.0,86,-99.99,,,0.00,,2013-02-19 11:01:00,
2013-02-19 04:11:00,7.0,3.0,-100.00,SE,145,16.0,18.0,86,-99.99,,,0.00,,2013-02-19 11:11:00,
2013-02-19 04:21:00,7.0,3.0,-100.00,SE,145,16.0,18.0,86,-99.99,,,0.00,,2013-02-19 11:21:00,
2013-02-19 04:32:00,7.0,3.0,-100.00,SE,145,16.0,18.0,86,-99.99,,,0.00,,2013-02-19 11:32:00,
2013-02-19 04:52:00,3.0,-1.0,-100.00,SE,145,14.0,17.0,83,-99.99,,,0.00,,2013-02-19 11:52:00,
2013-02-19 05:01:00,3.0,-1.0,-100.00,SE,145,14.0,17.0,83,-99.99,,,0.00,,2013-02-19 12:01:00,
2013-02-19 05:12:00,4.0,0.0,-100.00,SE,140,16.0,20.0,84,-99.99,,,0.00,,2013-02-19 12:12:00,
2013-02-19 05:21:00,4.0,0.0,-100.00,SE,140,16.0,20.0,84,-99.99,,,0.00,,2013-02-19 12:21:00,
2013-02-19 05:32:00,4.0,0.0,-100.00,SE,140,16.0,20.0,84,-99.99,,,0.00,,2013-02-19 12:32:00,
2013-02-19 05:52:00,9.0,6.0,-100.00,SSE,150,22.0,24.0,87,-99.99,,,0.00,,2013-02-19 12:52:00,
2013-02-19 06:02:00,9.0,6.0,-100.00,SSE,150,22.0,24.0,87,-99.99,,,0.00,,2013-02-19 13:02:00,
2013-02-19 06:11:00,7.0,4.0,-100.00,SE,145,21.0,25.0,86,-99.99,,,0.00,,2013-02-19 13:11:00,
2013-02-19 06:22:00,7.0,4.0,-100.00,SE,145,21.0,25.0,86,-99.99,,,0.00,,2013-02-19 13:22:00,
2013-02-19 06:31:00,7.0,4.0,-100.00,SE,145,21.0,25.0,86,-99.99,,,0.00,,2013-02-19 13:31:00,
2013-02-19 06:52:00,11.0,9.0,-100.00,SE,145,21.0,26.0,89,-99.99,,,0.00,,2013-02-19 13:52:00,
2013-02-19 07:01:00,11.0,9.0,-100.00,SE,145,21.0,26.0,89,-99.99,,,0.00,,2013-02-19 14:01:00,
2013-02-19 07:11:00,6.0,3.0,-100.00,SSE,155,19.0,20.0,85,-99.99,,,0.00,,2013-02-19 14:11:00,
2013-02-19 07:21:00,6.0,3.0,-100.00,SSE,155,19.0,20.0,85,-99.99,,,0.00,,2013-02-19 14:21:00,
2013-02-19 07:32:00,6.0,3.0,-100.00,SSE,155,19.0,20.0,85,-99.99,,,0.00,,2013-02-19 14:32:00,
2013-02-19 07:52:00,7.0,4.0,-100.00,SSE,155,19.0,21.0,86,-99.99,,,0.00,,2013-02-19 14:52:00,
2013-02-19 08:01:00,7.0,4.0,-100.00,SSE,155,19.0,21.0,86,-99.99,,,0.00,,2013-02-19 15:01:00,
2013-02-19 08:11:00,8.0,5.0,-100.00,SSE,160,17.0,18.0,87,-99.99,,,0.00,,2013-02-19 15:11:00,
2013-02-19 08:21:00,8.0,5.0,-100.00,SSE,160,17.0,18.0,87,-99.99,,,0.00,,2013-02-19 15:21:00,
2013-02-19 08:31:00,8.0,5.0,-100.00,SSE,160,17.0,18.0,87,-99.99,,,0.00,,2013-02-19 15:31:00,
2013-02-19 08:52:00,8.0,5.0,-100.00,SSE,160,17.0,18.0,86,-99.99,,,0.00,,2013-02-19 15:52:00,
2013-02-19 09:01:00,8.0,5.0,-100.00,SSE,160,17.0,18.0,86,-99.99,,,0.00,,2013-02-19 16:01:00,
2013-02-19 09:11:00,10.0,7.0,-100.00,SSE,165,19.0,22.0,87,-99.99,,,0.00,,2013-02-19 16:11:00,
2013-02-19 09:21:00,10.0,7.0,-100.00,SSE,165,19.0,22.0,87,-99.99,,,0.00,,2013-02-19 16:21:00,
2013-02-19 09:32:00,10.0,7.0,-100.00,SSE,165,19.0,22.0,87,-99.99,,,0.00,,2013-02-19 16:32:00,
2013-02-19 09:52:00,10.0,7.0,-100.00,SSE,160,29.0,30.0,88,-99.99,,,0.00,,2013-02-19 16:52:00,
2013-02-19 10:01:00,10.0,7.0,-100.00,SSE,160,29.0,30.0,88,-99.99,,,0.00,,2013-02-19 17:01:00,
2013-02-19 10:11:00,11.0,8.0,-100.00,SSE,160,26.0,28.0,88,-99.99,,,0.00,,2013-02-19 17:11:00,
2013-02-19 10:21:00,11.0,8.0,-100.00,SSE,160,26.0,28.0,88,-99.99,,,0.00,,2013-02-19 17:21:00,
2013-02-19 10:32:00,11.0,8.0,-100.00,SSE,160,26.0,28.0,88,-99.99,,,0.00,,2013-02-19 17:32:00,
2013-02-19 10:52:00,11.0,9.0,-100.00,SSE,160,26.0,29.0,89,-99.99,,,0.00,,2013-02-19 17:52:00,
2013-02-19 11:01:00,11.0,9.0,-100.00,SSE,160,26.0,29.0,89,-99.99,,,0.00,,2013-02-19 18:01:00,
2013-02-19 11:11:00,13.0,11.0,-100.00,SSE,155,26.0,29.0,90,-99.99,,,0.00,,2013-02-19 18:11:00,
2013-02-19 11:21:00,13.0,11.0,-100.00,SSE,155,26.0,29.0,90,-99.99,,,0.00,,2013-02-19 18:21:00,
2013-02-19 11:31:00,13.0,11.0,-100.00,SSE,155,26.0,29.0,90,-99.99,,,0.00,,2013-02-19 18:31:00,
2013-02-19 11:52:00,14.0,12.0,-100.00,SSE,150,24.0,27.0,91,-99.99,,,0.00,,2013-02-19 18:52:00,
2013-02-19 12:01:00,14.0,12.0,-100.00,SSE,150,24.0,27.0,91,-99.99,,,0.00,,2013-02-19 19:01:00,
2013-02-19 12:11:00,15.0,13.0,-100.00,SSE,160,22.0,24.0,90,-99.99,,,0.00,,2013-02-19 19:11:00,
2013-02-19 12:21:00,15.0,13.0,-100.00,SSE,160,22.0,24.0,90,-99.99,,,0.00,,2013-02-19 19:21:00,
2013-02-19 12:31:00,15.0,13.0,-100.00,SSE,160,22.0,24.0,90,-99.99,,,0.00,,2013-02-19 19:31:00,
2013-02-19 12:52:00,16.0,13.0,-100.00,SSE,155,19.0,21.0,89,-99.99,,,0.00,,2013-02-19 19:52:00,
2013-02-19 13:01:00,16.0,13.0,-100.00,SSE,155,19.0,21.0,89,-99.99,,,0.00,,2013-02-19 20:01:00,
2013-02-19 13:11:00,17.0,14.0,-100.00,SSE,155,17.0,19.0,87,-99.99,,,0.00,,2013-02-19 20:11:00,
2013-02-19 13:21:00,17.0,14.0,-100.00,SSE,155,17.0,19.0,87,-99.99,,,0.00,,2013-02-19 20:21:00,
2013-02-19 13:31:00,17.0,14.0,-100.00,SSE,155,17.0,19.0,87,-99.99,,,0.00,,2013-02-19 20:31:00,
2013-02-19 13:52:00,18.0,14.0,-100.00,SSE,155,14.0,16.0,84,-99.99,,,0.00,,2013-02-19 20:52:00,
2013-02-19 14:01:00,18.0,14.0,-100.00,SSE,155,14.0,16.0,84,-99.99,,,0.00,,2013-02-19 21:01:00,
2013-02-19 14:11:00,19.0,15.0,-100.00,SSE,160,11.0,14.0,82,-99.99,,,0.00,,2013-02-19 21:11:00,
2013-02-19 14:21:00,19.0,15.0,-100.00,SSE,160,11.0,14.0,82,-99.99,,,0.00,,2013-02-19 21:21:00,
2013-02-19 14:31:00,19.0,15.0,-100.00,SSE,160,11.0,14.0,82,-99.99,,,0.00,,2013-02-19 21:31:00,
2013-02-19 14:52:00,20.0,14.0,-100.00,SSE,155,12.0,14.0,79,-99.99,,,0.00,,2013-02-19 21:52:00,
2013-02-19 15:02:00,20.0,14.0,-100.00,SSE,155,12.0,14.0,79,-99.99,,,0.00,,2013-02-19 22:02:00,
2013-02-19 15:11:00,21.0,14.0,-100.00,South,175,7.0,9.0,76,-99.99,,,0.00,,2013-02-19 22:11:00,
2013-02-19 15:21:00,21.0,14.0,-100.00,South,175,7.0,9.0,76,-99.99,,,0.00,,2013-02-19 22:21:00,
2013-02-19 15:32:00,21.0,14.0,-100.00,South,175,7.0,9.0,76,-99.99,,,0.00,,2013-02-19 22:32:00,
2013-02-19 15:52:00,22.0,15.0,-100.00,South,190,4.0,6.0,74,-99.99,,,0.00,,2013-02-19 22:52:00,
2013-02-19 16:01:00,22.0,15.0,-100.00,South,190,4.0,6.0,74,-99.99,,,0.00,,2013-02-19 23:01:00,
2013-02-19 16:11:00,22.0,16.0,-100.00,SW,215,3.0,4.0,75,-99.99,,,0.00,,2013-02-19 23:11:00,
2013-02-19 16:21:00,22.0,16.0,-100.00,SW,215,3.0,4.0,75,-99.99,,,0.00,,2013-02-19 23:21:00,
2013-02-19 16:32:00,22.0,16.0,-100.00,SW,215,3.0,4.0,75,-99.99,,,0.00,,2013-02-19 23:32:00,
2013-02-19 16:52:00,24.0,16.0,-100.00,WNW,300,2.0,4.0,70,-99.99,,,0.00,,2013-02-19 23:52:00,
2013-02-19 17:01:00,24.0,16.0,-100.00,WNW,300,2.0,4.0,70,-99.99,,,0.00,,2013-02-20 00:01:00,
2013-02-19 17:11:00,26.0,15.0,-100.00,SSW,210,1.0,3.0,62,-99.99,,,0.00,,2013-02-20 00:11:00,
2013-02-19 17:21:00,26.0,15.0,-100.00,SSW,210,1.0,3.0,62,-99.99,,,0.00,,2013-02-20 00:21:00,
2013-02-19 17:31:00,26.0,15.0,-100.00,SSW,210,1.0,3.0,62,-99.99,,,0.00,,2013-02-20 00:31:00,
2013-02-19 17:52:00,25.0,15.0,-100.00,North,355,1.0,3.0,66,-99.99,,,0.00,,2013-02-20 00:52:00,
2013-02-19 18:02:00,25.0,15.0,-100.00,North,355,1.0,3.0,66,-99.99,,,0.00,,2013-02-20 01:02:00,
2013-02-19 18:11:00,24.0,15.0,-100.00,SE,125,1.0,2.0,67,-99.99,,,0.00,,2013-02-20 01:11:00,
2013-02-19 18:21:00,24.0,15.0,-100.00,SE,125,1.0,2.0,67,-99.99,,,0.00,,2013-02-20 01:21:00,
2013-02-19 18:31:00,24.0,15.0,-100.00,SE,125,1.0,2.0,67,-99.99,,,0.00,,2013-02-20 01:31:00,
2013-02-19 18:52:00,24.0,15.0,-100.00,East,85,1.0,2.0,67,-99.99,,,0.00,,2013-02-20 01:52:00,
2013-02-19 19:01:00,24.0,15.0,-100.00,East,85,1.0,2.0,67,-99.99,,,0.00,,2013-02-20 02:01:00,
2013-02-19 19:11:00,25.0,17.0,-100.00,ENE,75,2.0,3.0,70,-99.99,,,0.00,,2013-02-20 02:11:00,
2013-02-19 19:21:00,25.0,17.0,-100.00,ENE,75,2.0,3.0,70,-99.99,,,0.00,,2013-02-20 02:21:00,
2013-02-19 19:31:00,25.0,17.0,-100.00,ENE,75,2.0,3.0,70,-99.99,,,0.00,,2013-02-20 02:31:00,
2013-02-19 19:52:00,24.0,15.0,-100.00,SW,225,1.0,1.0,68,-99.99,,,0.00,,2013-02-20 02:52:00,
2013-02-19 20:01:00,24.0,15.0,-100.00,SW,225,1.0,1.0,68,-99.99,,,0.00,,2013-02-20 03:01:00,
2013-02-19 20:12:00,24.0,15.0,-100.00,North,10,4.0,6.0,67,-99.99,,,0.00,,2013-02-20 03:12:00,
2013-02-19 20:21:00,24.0,15.0,-100.00,North,10,4.0,6.0,67,-99.99,,,0.00,,2013-02-20 03:21:00,
2013-02-19 20:32:00,24.0,15.0,-100.00,North,10,4.0,6.0,67,-99.99,,,0.00,,2013-02-20 03:32:00,
2013-02-19 20:52:00,22.0,14.0,-100.00,NNE,15,3.0,7.0,72,-99.99,,,0.00,,2013-02-20 03:52:00,
2013-02-19 21:01:00,22.0,14.0,-100.00,NNE,15,3.0,7.0,72,-99.99,,,0.00,,2013-02-20 04:01:00,
2013-02-19 21:11:00,23.0,14.0,-100.00,North,10,6.0,8.0,69,-99.99,,,0.00,,2013-02-20 04:11:00,
2013-02-19 21:21:00,23.0,14.0,-100.00,North,10,6.0,8.0,69,-99.99,,,0.00,,2013-02-20 04:21:00,
2013-02-19 21:31:00,23.0,14.0,-100.00,North,10,6.0,8.0,69,-99.99,,,0.00,,2013-02-20 04:31:00,
2013-02-19 21:52:00,22.0,13.0,-100.00,North,0,6.0,8.0,68,-99.99,,,0.00,,2013-02-20 04:52:00,
2013-02-19 22:02:00,22.0,13.0,-100.00,North,0,6.0,8.0,68,-99.99,,,0.00,,2013-02-20 05:02:00,
2013-02-19 22:12:00,20.0,13.0,-100.00,North,10,8.0,9.0,73,-99.99,,,0.00,,2013-02-20 05:12:00,
2013-02-19 22:22:00,20.0,13.0,-100.00,North,10,8.0,9.0,73,-99.99,,,0.00,,2013-02-20 05:22:00,
2013-02-19 22:32:00,20.0,13.0,-100.00,North,10,8.0,9.0,73,-99.99,,,0.00,,2013-02-20 05:32:00,
2013-02-19 22:52:00,19.0,13.0,-100.00,North,0,4.0,8.0,76,-99.99,,,0.00,,2013-02-20 05:52:00,
2013-02-19 23:01:00,19.0,13.0,-100.00,North,0,4.0,8.0,76,-99.99,,,0.00,,2013-02-20 06:01:00,
2013-02-19 23:11:00,22.0,15.0,-100.00,NNE,25,6.0,9.0,75,-99.99,,,0.00,,2013-02-20 06:11:00,
2013-02-19 23:21:00,22.0,15.0,-100.00,NNE,25,6.0,9.0,75,-99.99,,,0.00,,2013-02-20 06:21:00,
2013-02-19 23:31:00,22.0,15.0,-100.00,NNE,25,6.0,9.0,75,-99.99,,,0.00,,2013-02-20 06:31:00,
2013-02-19 23:52:00,20.0,15.0,-100.00,NE,40,6.0,7.0,80,-99.99,,,0.00,,2013-02-20 06:52:00,